createdAt,value
2024-02-19T00:04:06.450Z,102862.94
2024-02-19T00:09:08.856Z,102862.78
2024-02-19T00:14:11.039Z,102863.25
2024-02-19T00:19:13.417Z,102867.53
2024-02-19T00:24:17.582Z,102878.97
2024-02-19T00:29:20.107Z,102870.38
2024-02-19T00:34:22.814Z,102869.53
2024-02-19T00:39:25.187Z,102876.91
2024-02-19T00:44:27.317Z,102886.56
2024-02-19T00:49:29.467Z,102887.19
2024-02-19T00:54:32.110Z,102870.88
2024-02-19T00:59:34.412Z,102882.19
2024-02-19T01:04:36.861Z,102877.94
2024-02-19T01:09:39.388Z,102873.06
2024-02-19T01:14:42.259Z,102878.28
2024-02-19T01:19:46.332Z,102869.25
2024-02-19T01:24:50.110Z,102869.94
2024-02-19T01:29:55.638Z,102865.16
2024-02-19T01:34:58.715Z,102870.03
2024-02-19T01:40:01.156Z,102865.84
2024-02-19T01:45:06.548Z,102875.16
2024-02-19T01:50:09.209Z,102875.63
2024-02-19T01:55:16.223Z,102876.09
2024-02-19T02:05:25.020Z,102879.63
2024-02-19T02:10:27.256Z,102870.81
2024-02-19T02:15:29.483Z,102859.50
2024-02-19T02:20:32.659Z,102875.56
2024-02-19T02:25:35.192Z,102859.59
2024-02-19T02:30:37.646Z,102860.06
2024-02-19T02:35:40.095Z,102858.03
2024-02-19T02:40:42.331Z,102863.97
2024-02-19T02:45:49.012Z,102864.22
2024-02-19T02:50:53.236Z,102865.88
2024-02-19T02:55:55.454Z,102858.13
2024-02-19T03:00:57.935Z,102859.19
2024-02-19T03:06:01.497Z,102856.47
2024-02-19T03:11:04.952Z,102860.88
2024-02-19T03:16:07.859Z,102855.41
2024-02-19T03:21:15.116Z,102848.84
2024-02-19T03:26:34.368Z,102851.59
2024-02-19T03:31:44.897Z,102849.28
2024-02-19T03:36:52.538Z,102846.41
2024-02-19T03:41:54.774Z,102838.06
2024-02-19T03:46:59.444Z,102839.38
2024-02-19T03:52:03.215Z,102832.69
2024-02-19T03:57:05.993Z,102830.66
2024-02-19T04:02:08.264Z,102822.06
2024-02-19T04:07:11.425Z,102828.22
2024-02-19T04:12:13.808Z,102821.56
2024-02-19T04:17:16.220Z,102825.81
2024-02-19T04:22:19.723Z,102823.31
2024-02-19T04:27:22.344Z,102827.34
2024-02-19T04:32:24.518Z,102823.78
2024-02-19T04:37:27.152Z,102822.09
2024-02-19T04:42:29.624Z,102822.09
2024-02-19T04:47:31.984Z,102819.13
2024-02-19T04:52:36.992Z,102827.13
2024-02-19T04:57:44.517Z,102821.41
2024-02-19T05:02:51.184Z,102817.63
2024-02-19T05:07:53.438Z,102812.75
2024-02-19T05:12:55.689Z,102810.59
2024-02-19T05:17:58.021Z,102819.88
2024-02-19T05:23:03.501Z,102816.91
2024-02-19T05:28:05.862Z,102832.03
2024-02-19T05:33:09.167Z,102842.97
2024-02-19T05:38:13.299Z,102831.81
2024-02-19T05:43:16.052Z,102820.88
2024-02-19T05:48:18.458Z,102820.41
2024-02-19T05:53:26.879Z,102825.63
2024-02-19T05:58:34.356Z,102820.16
2024-02-19T06:03:36.934Z,102821.22
2024-02-19T06:08:39.903Z,102819.78
2024-02-19T06:13:49.678Z,102827.63
2024-02-19T06:18:54.348Z,102827.03
2024-02-19T06:23:59.068Z,102827.88
2024-02-19T06:29:01.587Z,102835.00
2024-02-19T06:34:04.826Z,102837.50
2024-02-19T06:39:09.638Z,102825.25
2024-02-19T06:44:16.556Z,102826.09
2024-02-19T06:49:29.224Z,102827.78
2024-02-19T06:54:33.000Z,102834.31
2024-02-19T06:59:45.775Z,102839.78
2024-02-19T07:04:51.999Z,102845.84
2024-02-19T07:09:54.352Z,102853.59
2024-02-19T07:14:56.924Z,102859.22
2024-02-19T07:20:02.404Z,102872.13
2024-02-19T07:25:13.751Z,102881.31
2024-02-19T07:30:22.859Z,102884.44
2024-02-19T07:35:25.336Z,102892.78
2024-02-19T07:40:27.591Z,102898.88
2024-02-19T07:45:29.806Z,102908.28
2024-02-19T07:50:31.837Z,102911.63
2024-02-19T07:55:36.498Z,102894.50
2024-02-19T08:00:38.978Z,102899.50
2024-02-19T08:05:42.043Z,102904.28
2024-02-19T08:10:51.925Z,102903.94
2024-02-19T08:15:54.330Z,102908.38
2024-02-19T08:20:56.591Z,102911.66
2024-02-19T08:26:02.270Z,102918.69
2024-02-19T08:31:04.733Z,102916.44
2024-02-19T08:36:07.303Z,102918.34
2024-02-19T08:41:09.395Z,102936.75
2024-02-19T08:46:11.531Z,102932.81
2024-02-19T08:51:14.008Z,102929.47
2024-02-19T08:56:16.746Z,102927.44
2024-02-19T09:01:20.349Z,102929.22
2024-02-19T09:06:22.691Z,102932.91
2024-02-19T09:11:24.918Z,102935.16
2024-02-19T09:16:27.449Z,102931.69
2024-02-19T09:21:29.731Z,102928.41
2024-02-19T09:26:32.003Z,102926.63
2024-02-19T09:31:34.591Z,102922.72
2024-02-19T09:36:37.096Z,102921.03
2024-02-19T10:34:21.020Z,102905.84
2024-02-19T10:39:23.661Z,102899.25
2024-02-19T10:44:27.562Z,102896.47
2024-02-19T10:49:30.664Z,102899.78
2024-02-19T10:54:32.970Z,102887.25
2024-02-19T10:59:36.987Z,102899.88
2024-02-19T11:04:39.448Z,102888.69
2024-02-19T11:09:42.808Z,102888.31
2024-02-19T11:14:47.000Z,102880.16
2024-02-19T11:19:49.128Z,102872.53
2024-02-19T11:24:52.346Z,102874.84
2024-02-19T11:30:02.989Z,102859.91
2024-02-19T11:35:15.661Z,102851.31
2024-02-19T11:40:21.082Z,102835.03
2024-02-19T11:45:27.258Z,102836.97
2024-02-19T11:50:32.814Z,102831.69
2024-02-19T11:55:41.031Z,102816.63
2024-02-19T12:00:43.316Z,102812.75
2024-02-19T12:05:47.472Z,102796.94
2024-02-19T12:10:51.838Z,102791.41
2024-02-19T12:15:54.201Z,102789.19
2024-02-19T12:20:56.614Z,102791.59
2024-02-19T12:25:58.770Z,102774.50
2024-02-19T12:31:01.341Z,102772.81
2024-02-19T12:36:03.865Z,102772.03
2024-02-19T12:41:06.174Z,102760.75
2024-02-19T12:46:10.061Z,102755.75
2024-02-19T12:51:16.425Z,102747.00
2024-02-19T12:56:18.781Z,102729.94
2024-02-19T13:01:28.072Z,102724.94
2024-02-19T13:06:35.092Z,102713.94
2024-02-19T13:11:39.755Z,102700.97
2024-02-19T13:16:42.170Z,102694.88
2024-02-19T13:21:44.858Z,102699.56
2024-02-19T13:31:49.650Z,102694.56
2024-02-19T13:36:53.885Z,102684.88
2024-02-19T13:41:56.417Z,102686.47
2024-02-19T13:47:00.056Z,102688.34
2024-02-19T13:52:02.599Z,102688.66
2024-02-19T13:57:05.344Z,102696.75
2024-02-19T14:02:08.899Z,102700.63
2024-02-19T14:07:12.023Z,102691.03
2024-02-19T14:12:14.336Z,102685.22
2024-02-19T14:17:16.554Z,102682.44
2024-02-19T14:22:18.928Z,102681.91
2024-02-19T14:27:21.282Z,102673.06
2024-02-19T14:32:23.675Z,102667.53
2024-02-19T14:37:28.097Z,102663.13
2024-02-19T14:42:31.720Z,102664.78
2024-02-19T14:47:35.646Z,102667.50
2024-02-19T14:52:42.360Z,102665.22
2024-02-19T14:57:47.330Z,102660.22
2024-02-19T15:02:51.394Z,102665.19
2024-02-19T15:07:56.952Z,102660.22
2024-02-19T15:13:00.503Z,102648.06
2024-02-19T15:18:05.833Z,102647.22
2024-02-19T15:23:08.355Z,102657.97
2024-02-19T15:28:11.080Z,102638.09
2024-02-19T15:33:13.461Z,102648.44
2024-02-19T15:38:17.003Z,102657.22
2024-02-19T15:43:20.197Z,102651.66
2024-02-19T15:48:22.671Z,102654.91
2024-02-19T15:53:29.004Z,102660.38
2024-02-19T15:58:33.186Z,102655.34
2024-02-19T16:03:38.420Z,102665.16
2024-02-19T16:08:42.302Z,102666.75
2024-02-19T16:13:46.242Z,102665.03
2024-02-19T16:18:49.177Z,102650.25
2024-02-19T16:23:51.991Z,102661.91
2024-02-19T16:28:56.565Z,102676.66
2024-02-19T16:34:00.022Z,102686.47
2024-02-19T16:39:02.634Z,102681.06
2024-02-19T16:44:05.681Z,102685.03
2024-02-19T16:49:08.463Z,102691.56
2024-02-19T16:54:11.971Z,102702.41
2024-02-19T16:59:14.677Z,102695.25
2024-02-19T17:04:17.453Z,102699.09
2024-02-19T17:09:19.956Z,102691.66
2024-02-19T17:14:22.702Z,102682.59
2024-02-19T17:19:25.579Z,102697.94
2024-02-19T17:24:29.704Z,102702.09
2024-02-19T17:29:31.965Z,102710.22
2024-02-19T17:34:34.443Z,102707.91
2024-02-19T17:39:37.175Z,102716.00
2024-02-19T17:44:39.627Z,102723.66
2024-02-19T17:49:43.068Z,102719.59
2024-02-19T17:54:45.947Z,102734.31
2024-02-19T17:59:48.514Z,102724.91
2024-02-19T18:04:55.558Z,102727.59
2024-02-19T18:09:58.731Z,102724.25
2024-02-19T18:15:01.293Z,102727.00
2024-02-19T18:20:08.158Z,102733.00
2024-02-19T18:25:11.049Z,102740.66
2024-02-19T18:30:15.944Z,102740.31
2024-02-19T18:35:19.212Z,102744.38
2024-02-19T18:40:21.784Z,102748.72
2024-02-19T18:45:26.142Z,102762.09
2024-02-19T18:50:28.587Z,102758.41
2024-02-19T18:55:31.258Z,102745.13
2024-02-19T19:00:34.290Z,102749.94
2024-02-19T19:05:38.888Z,102758.91
2024-02-19T19:10:41.541Z,102759.16
2024-02-19T19:15:44.541Z,102744.84
2024-02-19T19:20:48.073Z,102746.19
2024-02-19T19:25:50.628Z,102746.66
2024-02-19T19:30:53.117Z,102759.47
2024-02-19T19:35:55.680Z,102749.47
2024-02-19T19:41:00.668Z,102749.97
2024-02-19T19:46:04.935Z,102747.13
2024-02-19T19:54:35.099Z,102734.47
2024-02-19T19:59:37.935Z,102736.28
2024-02-19T20:04:42.728Z,102728.31
2024-02-19T20:13:09.205Z,102733.53
2024-02-19T20:18:13.939Z,102725.81
2024-02-19T20:23:17.153Z,102727.72
2024-02-19T20:28:19.801Z,102718.66
2024-02-19T20:33:22.445Z,102723.78
2024-02-19T20:38:25.462Z,102724.28
2024-02-19T20:43:27.850Z,102738.72
2024-02-19T20:48:30.909Z,102743.84
2024-02-19T20:53:35.956Z,102741.75
2024-02-19T20:58:41.445Z,102721.22
2024-02-19T21:03:49.482Z,102725.78
2024-02-19T21:13:50.710Z,102737.00
2024-02-19T21:19:02.794Z,102728.66
2024-02-19T21:24:05.356Z,102738.88
2024-02-19T21:32:55.774Z,102740.06
2024-02-19T21:37:58.198Z,102749.00
2024-02-19T21:43:00.655Z,102731.88
2024-02-19T21:48:05.827Z,102730.06
2024-02-19T21:53:08.550Z,102734.38
2024-02-19T21:58:12.356Z,102740.91
2024-02-19T22:03:15.017Z,102731.75
2024-02-19T22:08:18.611Z,102726.13
2024-02-19T22:13:21.614Z,102715.06
2024-02-19T22:18:25.710Z,102715.97
2024-02-19T22:23:28.301Z,102720.03
2024-02-19T22:28:32.230Z,102714.41
2024-02-19T22:33:35.758Z,102710.97
2024-02-19T22:38:39.323Z,102704.28
2024-02-19T22:43:41.945Z,102716.31
2024-02-19T22:48:44.066Z,102706.91
2024-02-19T22:53:46.850Z,102694.53
2024-02-19T22:58:49.254Z,102675.00
2024-02-19T23:04:34.014Z,102679.28
2024-02-19T23:10:43.337Z,102674.38
2024-02-19T23:16:25.915Z,102672.81
2024-02-19T23:22:30.110Z,102656.75
2024-02-19T23:28:20.962Z,102665.41
2024-02-19T23:33:38.601Z,102656.47
2024-02-19T23:38:49.365Z,102653.34
2024-02-19T23:43:58.966Z,102643.72
2024-02-19T23:49:01.240Z,102644.19
2024-02-19T23:54:27.896Z,102638.56
2024-02-19T23:59:47.507Z,102640.06
